Terminal Aerodrome Forecast
Issued by NWS

Home | Current Version | Previous Version | Text Only | Print | Product List | Glossary On
Versions: 1 2 3 4 5 6 7 8 9 10 11 12 13
000
FTUS46 KOTX 201739
TAFPUW
TAF
KPUW 201739Z 2018/2118 26005KT P6SM SCT200
     FM210300 VRB03KT P6SM SCT120 BKN150
     FM210800 13006KT P6SM OVC100
     FM211100 24010KT P6SM SCT070 OVC100
     FM211400 25016G24KT P6SM SCT070=

USA.gov is the U.S. government's official web portal to all federal, state and local government web resources and services.